RYR7828 LEMI-EGHH
Flight info
| Callsign | RYR7828 |
|---|---|
| Flight time | N/A |
| Altitude | 38000 |
| Route | ALT N851 MITOS N608 COMPI Y90 USKAR DCT MOPAS DCT GIROM DCT AGN DCT SECHE DCT UVELI DCT CNA DCT MANAK UY110 ORIST Y110 THRED |
| Aircraft | B738/M-SDE2E3FGHIRWXY/LB1 |
Departure
| Time | 2026-04-14 11:30 |
|---|---|
| Airport | Region of Murcia International Airport (LEMI) |
Arrival
| Time | N/A |
|---|---|
| Airport | Bournemouth Airport (EGHH) |
| Time | Latitude | Longitude | Altitude | Speed | Heading |
|---|---|---|---|---|---|
| 2026-04-14 10:54 | 37.80322 | -1.13154 | 646 ft | 0 kts | 315° |
| 2026-04-14 11:22 | 37.80320 | -1.13151 | 646 ft | 3 kts | 315° |
| 2026-04-14 11:22 | 37.80303 | -1.13126 | 647 ft | 4 kts | 304° |
| 2026-04-14 11:23 | 37.80290 | -1.13097 | 648 ft | 4 kts | 283° |
| 2026-04-14 11:23 | 37.80290 | -1.13066 | 646 ft | 4 kts | 237° |
| 2026-04-14 11:23 | 37.80294 | -1.13059 | 647 ft | 0 kts | 225° |
| 2026-04-14 11:25 | 37.80293 | -1.13060 | 647 ft | 1 kts | 225° |
| 2026-04-14 11:25 | 37.80272 | -1.13088 | 647 ft | 8 kts | 226° |
| 2026-04-14 11:25 | 37.80216 | -1.13152 | 646 ft | 12 kts | 207° |
| 2026-04-14 11:26 | 37.80145 | -1.13120 | 647 ft | 12 kts | 133° |
| 2026-04-14 11:26 | 37.80077 | -1.13091 | 647 ft | 11 kts | 206° |
| 2026-04-14 11:26 | 37.80021 | -1.13158 | 647 ft | 11 kts | 225° |
| 2026-04-14 11:26 | 37.79968 | -1.13225 | 648 ft | 11 kts | 225° |
| 2026-04-14 11:27 | 37.79917 | -1.13291 | 651 ft | 10 kts | 226° |
| 2026-04-14 11:27 | 37.79862 | -1.13362 | 651 ft | 14 kts | 226° |
| 2026-04-14 11:27 | 37.79782 | -1.13467 | 650 ft | 18 kts | 225° |
| 2026-04-14 11:27 | 37.79697 | -1.13576 | 649 ft | 17 kts | 225° |
| 2026-04-14 11:28 | 37.79614 | -1.13682 | 646 ft | 17 kts | 226° |
| 2026-04-14 11:28 | 37.79536 | -1.13784 | 646 ft | 16 kts | 225° |
| 2026-04-14 11:28 | 37.79454 | -1.13848 | 646 ft | 14 kts | 172° |
| 2026-04-14 11:28 | 37.79396 | -1.13766 | 645 ft | 13 kts | 100° |
| 2026-04-14 11:29 | 37.79400 | -1.13653 | 644 ft | 13 kts | 66° |
| 2026-04-14 11:29 | 37.79461 | -1.13568 | 643 ft | 17 kts | 46° |
| 2026-04-14 11:29 | 37.79697 | -1.13266 | 647 ft | 82 kts | 45° |
| 2026-04-14 11:29 | 37.80243 | -1.12564 | 644 ft | 139 kts | 46° |
| 2026-04-14 11:30 | 37.80959 | -1.11634 | 1106 ft | 149 kts | 41° |
| 2026-04-14 11:30 | 37.81683 | -1.10635 | 1702 ft | 160 kts | 40° |
| 2026-04-14 11:30 | 37.82520 | -1.09618 | 2257 ft | 171 kts | 37° |
| 2026-04-14 11:30 | 37.83455 | -1.08537 | 2586 ft | 194 kts | 37° |
| 2026-04-14 11:31 | 37.84509 | -1.07317 | 2793 ft | 216 kts | 38° |
| 2026-04-14 11:31 | 37.85673 | -1.05959 | 2931 ft | 239 kts | 38° |
| 2026-04-14 11:31 | 37.86895 | -1.04528 | 3342 ft | 251 kts | 39° |
| 2026-04-14 11:31 | 37.88178 | -1.03013 | 4048 ft | 253 kts | 39° |
| 2026-04-14 11:32 | 37.89469 | -1.01482 | 4798 ft | 256 kts | 39° |
| 2026-04-14 11:32 | 37.90763 | -0.99945 | 5599 ft | 255 kts | 39° |
| 2026-04-14 11:32 | 37.92040 | -0.98429 | 6377 ft | 255 kts | 39° |
| 2026-04-14 11:32 | 37.93367 | -0.96853 | 7079 ft | 260 kts | 39° |
| 2026-04-14 11:33 | 37.94675 | -0.95299 | 7821 ft | 262 kts | 39° |
| 2026-04-14 11:33 | 37.96016 | -0.93705 | 8565 ft | 266 kts | 40° |
| 2026-04-14 11:33 | 37.97377 | -0.92086 | 9312 ft | 270 kts | 39° |
| 2026-04-14 11:34 | 38.00181 | -0.88750 | 10503 ft | 290 kts | 39° |
| 2026-04-14 11:34 | 38.01689 | -0.86956 | 10913 ft | 305 kts | 39° |
| 2026-04-14 11:34 | 38.03266 | -0.85077 | 11344 ft | 319 kts | 40° |
| 2026-04-14 11:34 | 38.04929 | -0.83091 | 11868 ft | 329 kts | 40° |
| 2026-04-14 11:35 | 38.06593 | -0.81101 | 12429 ft | 338 kts | 40° |
| 2026-04-14 11:35 | 38.08321 | -0.79035 | 13056 ft | 345 kts | 40° |
| 2026-04-14 11:35 | 38.10081 | -0.76930 | 13731 ft | 351 kts | 40° |
| 2026-04-14 11:35 | 38.11869 | -0.74791 | 14400 ft | 354 kts | 40° |
| 2026-04-14 11:36 | 38.13650 | -0.72667 | 15337 ft | 350 kts | 40° |
| 2026-04-14 11:36 | 38.15425 | -0.70556 | 16235 ft | 348 kts | 40° |
| 2026-04-14 11:36 | 38.17190 | -0.68459 | 17070 ft | 349 kts | 39° |
| 2026-04-14 11:36 | 38.18990 | -0.66320 | 17604 ft | 357 kts | 39° |
| 2026-04-14 11:37 | 38.20818 | -0.64144 | 18202 ft | 363 kts | 39° |
| 2026-04-14 11:37 | 38.22673 | -0.61933 | 18784 ft | 368 kts | 39° |
| 2026-04-14 11:37 | 38.24550 | -0.59694 | 19362 ft | 371 kts | 39° |
| 2026-04-14 11:37 | 38.26386 | -0.57364 | 19941 ft | 377 kts | 46° |
| 2026-04-14 11:38 | 38.27726 | -0.54445 | 20548 ft | 388 kts | 61° |
| 2026-04-14 11:38 | 38.28743 | -0.51276 | 21351 ft | 386 kts | 62° |
| 2026-04-14 11:38 | 38.29721 | -0.48101 | 22036 ft | 386 kts | 62° |
| 2026-04-14 11:38 | 38.30709 | -0.44904 | 22587 ft | 389 kts | 62° |
| 2026-04-14 11:39 | 38.31715 | -0.41692 | 23123 ft | 392 kts | 61° |
| 2026-04-14 11:39 | 38.32736 | -0.38461 | 23679 ft | 394 kts | 61° |
| 2026-04-14 11:39 | 38.33768 | -0.35220 | 24147 ft | 396 kts | 60° |
| 2026-04-14 11:39 | 38.34806 | -0.31961 | 24604 ft | 398 kts | 60° |
| 2026-04-14 11:40 | 38.35852 | -0.28677 | 25034 ft | 401 kts | 60° |
| 2026-04-14 11:40 | 38.36919 | -0.25389 | 25462 ft | 403 kts | 59° |
| 2026-04-14 11:40 | 38.38017 | -0.22101 | 25887 ft | 404 kts | 59° |
| 2026-04-14 11:40 | 38.39126 | -0.18799 | 26310 ft | 407 kts | 59° |
| 2026-04-14 11:41 | 38.40239 | -0.15473 | 26716 ft | 409 kts | 59° |
| 2026-04-14 11:41 | 38.41352 | -0.12128 | 27109 ft | 411 kts | 59° |
| 2026-04-14 11:41 | 38.42482 | -0.08763 | 27488 ft | 411 kts | 56° |
| 2026-04-14 11:41 | 38.44045 | -0.05805 | 27827 ft | 397 kts | 39° |
| 2026-04-14 11:42 | 38.46175 | -0.03651 | 28252 ft | 388 kts | 26° |
| 2026-04-14 11:42 | 38.48581 | -0.02148 | 28662 ft | 384 kts | 17° |
| 2026-04-14 11:42 | 38.51158 | -0.01321 | 29006 ft | 383 kts | 5° |
| 2026-04-14 11:42 | 38.53824 | -0.01164 | 29364 ft | 384 kts | 0° |
| 2026-04-14 11:43 | 38.56466 | -0.01154 | 29709 ft | 386 kts | 360° |
| 2026-04-14 11:43 | 38.59146 | -0.01180 | 30207 ft | 384 kts | 359° |
| 2026-04-14 11:43 | 38.61798 | -0.01206 | 30751 ft | 379 kts | 360° |
| 2026-04-14 11:43 | 38.64449 | -0.01222 | 31288 ft | 374 kts | 0° |
| 2026-04-14 11:44 | 38.67048 | -0.01225 | 31685 ft | 373 kts | 0° |
| 2026-04-14 11:44 | 38.69608 | -0.01220 | 32056 ft | 373 kts | 0° |
| 2026-04-14 11:44 | 38.72190 | -0.01209 | 32538 ft | 369 kts | 0° |
| 2026-04-14 11:44 | 38.74745 | -0.01195 | 33068 ft | 365 kts | 0° |
| 2026-04-14 11:45 | 38.77281 | -0.01180 | 33562 ft | 363 kts | 1° |
| 2026-04-14 11:45 | 38.79794 | -0.01164 | 34028 ft | 360 kts | 1° |
| 2026-04-14 11:45 | 38.82291 | -0.01148 | 34390 ft | 359 kts | 1° |
| 2026-04-14 11:45 | 38.84791 | -0.01131 | 34547 ft | 361 kts | 1° |
| 2026-04-14 11:46 | 38.87308 | -0.01114 | 34741 ft | 363 kts | 1° |
| 2026-04-14 11:46 | 38.89837 | -0.01098 | 34977 ft | 363 kts | 1° |
| 2026-04-14 11:46 | 38.92370 | -0.01081 | 35167 ft | 365 kts | 1° |
| 2026-04-14 11:46 | 38.94911 | -0.01065 | 35392 ft | 366 kts | 1° |
| 2026-04-14 11:47 | 38.97461 | -0.01048 | 35609 ft | 367 kts | 0° |
| 2026-04-14 11:47 | 39.00016 | -0.01031 | 35818 ft | 368 kts | 0° |
| 2026-04-14 11:47 | 39.02577 | -0.01014 | 36031 ft | 369 kts | 0° |
| 2026-04-14 11:47 | 39.05149 | -0.00998 | 36240 ft | 370 kts | 0° |
| 2026-04-14 11:48 | 39.07724 | -0.00981 | 36448 ft | 371 kts | 0° |
| 2026-04-14 11:48 | 39.09432 | -0.00970 | 36584 ft | 371 kts | 0° |
| 2026-04-14 11:48 | 39.12016 | -0.00953 | 36796 ft | 372 kts | 0° |
| 2026-04-14 11:48 | 39.14606 | -0.00936 | 37052 ft | 372 kts | 0° |
| 2026-04-14 11:49 | 39.17196 | -0.00919 | 37210 ft | 373 kts | 0° |
| 2026-04-14 11:49 | 39.19801 | -0.00901 | 37344 ft | 376 kts | 0° |
| 2026-04-14 11:49 | 39.22418 | -0.00884 | 37520 ft | 377 kts | 0° |
| 2026-04-14 11:49 | 39.25043 | -0.00867 | 37734 ft | 377 kts | 0° |
| 2026-04-14 11:50 | 39.27666 | -0.00850 | 37941 ft | 377 kts | 0° |
| 2026-04-14 11:50 | 39.30294 | -0.00832 | 38085 ft | 379 kts | 0° |
| 2026-04-14 11:50 | 39.32939 | -0.00809 | 38098 ft | 382 kts | 1° |
| 2026-04-14 11:51 | 39.38178 | 0.00260 | 38117 ft | 382 kts | 14° |
| 2026-04-14 11:51 | 39.40715 | 0.01212 | 38114 ft | 379 kts | 14° |
| 2026-04-14 11:51 | 39.45756 | 0.03108 | 38105 ft | 376 kts | 14° |
| 2026-04-14 11:52 | 39.50774 | 0.04979 | 38109 ft | 374 kts | 13° |
| 2026-04-14 11:52 | 39.55768 | 0.06833 | 38109 ft | 373 kts | 13° |
| 2026-04-14 11:53 | 39.60760 | 0.08684 | 38117 ft | 373 kts | 14° |
| 2026-04-14 11:53 | 39.65752 | 0.10538 | 38113 ft | 374 kts | 14° |
| 2026-04-14 11:54 | 39.70762 | 0.12402 | 38110 ft | 375 kts | 14° |
| 2026-04-14 11:54 | 39.75786 | 0.14273 | 38111 ft | 376 kts | 14° |
| 2026-04-14 11:55 | 39.80832 | 0.16156 | 38082 ft | 378 kts | 14° |
| 2026-04-14 11:55 | 39.85890 | 0.18047 | 38098 ft | 379 kts | 14° |
| 2026-04-14 11:56 | 39.90973 | 0.19949 | 38112 ft | 381 kts | 14° |
| 2026-04-14 11:56 | 39.96071 | 0.21861 | 38104 ft | 382 kts | 14° |
| 2026-04-14 11:57 | 40.01192 | 0.23783 | 38102 ft | 383 kts | 14° |
| 2026-04-14 11:57 | 40.06322 | 0.25708 | 38096 ft | 384 kts | 14° |
| 2026-04-14 11:58 | 40.11464 | 0.27639 | 38110 ft | 384 kts | 14° |
| 2026-04-14 11:58 | 40.16604 | 0.29574 | 38099 ft | 385 kts | 14° |
| 2026-04-14 11:59 | 40.21707 | 0.31498 | 38097 ft | 384 kts | 14° |
| 2026-04-14 11:59 | 40.26843 | 0.33437 | 38110 ft | 383 kts | 14° |
| 2026-04-14 12:00 | 40.31961 | 0.35372 | 38085 ft | 382 kts | 14° |
| 2026-04-14 12:00 | 40.37054 | 0.37305 | 38086 ft | 380 kts | 14° |
| 2026-04-14 12:01 | 40.42125 | 0.39238 | 38092 ft | 380 kts | 14° |
| 2026-04-14 12:01 | 40.47199 | 0.41173 | 38086 ft | 380 kts | 14° |
| 2026-04-14 12:02 | 40.52274 | 0.43111 | 38089 ft | 380 kts | 14° |
| 2026-04-14 12:02 | 40.57354 | 0.45054 | 38092 ft | 380 kts | 14° |
| 2026-04-14 12:03 | 40.62442 | 0.47002 | 38089 ft | 381 kts | 14° |
| 2026-04-14 12:03 | 40.67546 | 0.48961 | 38098 ft | 382 kts | 14° |
| 2026-04-14 12:04 | 40.72663 | 0.50927 | 38087 ft | 384 kts | 14° |
| 2026-04-14 12:04 | 40.77798 | 0.52904 | 38094 ft | 385 kts | 14° |
| 2026-04-14 12:05 | 40.82938 | 0.54886 | 38091 ft | 385 kts | 14° |
| 2026-04-14 12:05 | 40.88085 | 0.56874 | 38089 ft | 385 kts | 14° |
| 2026-04-14 12:06 | 40.93223 | 0.58863 | 38084 ft | 385 kts | 14° |
| 2026-04-14 12:06 | 40.98363 | 0.60853 | 38098 ft | 385 kts | 14° |
| 2026-04-14 12:07 | 41.03502 | 0.62848 | 38094 ft | 385 kts | 14° |
| 2026-04-14 12:07 | 41.08641 | 0.64846 | 38092 ft | 385 kts | 14° |
| 2026-04-14 12:08 | 41.13783 | 0.66847 | 38101 ft | 385 kts | 15° |
| 2026-04-14 12:08 | 41.18916 | 0.68844 | 38094 ft | 384 kts | 14° |
| 2026-04-14 12:09 | 41.24043 | 0.70841 | 38100 ft | 384 kts | 15° |
| 2026-04-14 12:09 | 41.29176 | 0.72843 | 38093 ft | 384 kts | 15° |
| 2026-04-14 12:10 | 41.34306 | 0.74849 | 38102 ft | 385 kts | 15° |
| 2026-04-14 12:10 | 41.39447 | 0.76862 | 38139 ft | 385 kts | 15° |
| 2026-04-14 12:11 | 41.44563 | 0.78869 | 38101 ft | 386 kts | 15° |
| 2026-04-14 12:11 | 41.49717 | 0.80894 | 38106 ft | 386 kts | 15° |
| 2026-04-14 12:12 | 41.54874 | 0.82923 | 38092 ft | 386 kts | 15° |
| 2026-04-14 12:12 | 41.60022 | 0.84953 | 38092 ft | 385 kts | 15° |
| 2026-04-14 12:13 | 41.65162 | 0.86983 | 38085 ft | 384 kts | 15° |
| 2026-04-14 12:13 | 41.70284 | 0.89008 | 38086 ft | 383 kts | 15° |
| 2026-04-14 12:14 | 41.75391 | 0.91031 | 38088 ft | 382 kts | 15° |
| 2026-04-14 12:14 | 41.80482 | 0.93052 | 38083 ft | 381 kts | 15° |
| 2026-04-14 12:15 | 41.85533 | 0.95060 | 38103 ft | 377 kts | 15° |
| 2026-04-14 12:15 | 41.90540 | 0.97054 | 38110 ft | 373 kts | 15° |
| 2026-04-14 12:16 | 41.95494 | 0.99030 | 38118 ft | 369 kts | 15° |
| 2026-04-14 12:16 | 42.00397 | 1.00988 | 38104 ft | 366 kts | 15° |
| 2026-04-14 12:17 | 42.05288 | 1.02948 | 38113 ft | 369 kts | 14° |
| 2026-04-14 12:17 | 42.10246 | 1.04930 | 38115 ft | 374 kts | 15° |
| 2026-04-14 12:18 | 42.15343 | 1.06243 | 38112 ft | 374 kts | 4° |
| 2026-04-14 12:18 | 42.20539 | 1.05991 | 38005 ft | 375 kts | 356° |
| 2026-04-14 12:19 | 42.25687 | 1.05387 | 38045 ft | 375 kts | 356° |
| 2026-04-14 12:19 | 42.30903 | 1.04794 | 38081 ft | 378 kts | 356° |
| 2026-04-14 12:20 | 42.36172 | 1.04209 | 38077 ft | 381 kts | 356° |
| 2026-04-14 12:20 | 42.41467 | 1.03624 | 38056 ft | 382 kts | 356° |
| 2026-04-14 12:21 | 42.46781 | 1.03042 | 38090 ft | 384 kts | 356° |
| 2026-04-14 12:21 | 42.52119 | 1.02463 | 38090 ft | 386 kts | 356° |
| 2026-04-14 12:22 | 42.57491 | 1.01880 | 38127 ft | 388 kts | 356° |
| 2026-04-14 12:22 | 42.62871 | 1.01297 | 38127 ft | 389 kts | 356° |
| 2026-04-14 12:23 | 42.68278 | 1.00708 | 38144 ft | 390 kts | 356° |
| 2026-04-14 12:23 | 42.73688 | 1.00117 | 38157 ft | 391 kts | 356° |
| 2026-04-14 12:24 | 42.79118 | 0.99522 | 38192 ft | 390 kts | 357° |
| 2026-04-14 12:24 | 42.84550 | 0.98929 | 38185 ft | 392 kts | 356° |
| 2026-04-14 12:25 | 42.89996 | 0.98331 | 38169 ft | 392 kts | 356° |
| 2026-04-14 12:25 | 42.95445 | 0.97732 | 38175 ft | 393 kts | 356° |
| 2026-04-14 12:26 | 43.00889 | 0.97132 | 38181 ft | 392 kts | 356° |
| 2026-04-14 12:26 | 43.06335 | 0.96532 | 38199 ft | 392 kts | 356° |
| 2026-04-14 12:27 | 43.11769 | 0.95931 | 38188 ft | 391 kts | 357° |
| 2026-04-14 12:27 | 43.17191 | 0.95330 | 38189 ft | 390 kts | 356° |
| 2026-04-14 12:28 | 43.22594 | 0.94731 | 38208 ft | 389 kts | 356° |
| 2026-04-14 12:28 | 43.27936 | 0.94138 | 38204 ft | 387 kts | 356° |
| 2026-04-14 12:29 | 43.33297 | 0.93541 | 38200 ft | 386 kts | 356° |
| 2026-04-14 12:29 | 43.38633 | 0.92946 | 38204 ft | 384 kts | 356° |
| 2026-04-14 12:30 | 43.43952 | 0.92352 | 38204 ft | 383 kts | 356° |
| 2026-04-14 12:30 | 43.49258 | 0.91758 | 38203 ft | 382 kts | 356° |
| 2026-04-14 12:31 | 43.54551 | 0.91165 | 38203 ft | 381 kts | 356° |
| 2026-04-14 12:31 | 43.59843 | 0.90571 | 38208 ft | 381 kts | 356° |
| 2026-04-14 12:32 | 43.65130 | 0.89976 | 38214 ft | 381 kts | 356° |
| 2026-04-14 12:32 | 43.70422 | 0.89379 | 38206 ft | 382 kts | 356° |
| 2026-04-14 12:33 | 43.75715 | 0.88782 | 38208 ft | 382 kts | 356° |
| 2026-04-14 12:33 | 43.81012 | 0.88183 | 38207 ft | 382 kts | 356° |
| 2026-04-14 12:34 | 43.86303 | 0.87558 | 38214 ft | 382 kts | 353° |
| 2026-04-14 12:34 | 43.91445 | 0.85664 | 38202 ft | 385 kts | 339° |
| 2026-04-14 12:35 | 43.95490 | 0.83063 | 38206 ft | 386 kts | 338° |
| 2026-04-14 12:35 | 44.00341 | 0.79891 | 38209 ft | 385 kts | 338° |
| 2026-04-14 12:36 | 44.05189 | 0.76737 | 38221 ft | 384 kts | 338° |
| 2026-04-14 12:36 | 44.10713 | 0.73149 | 38198 ft | 369 kts | 338° |
| 2026-04-14 12:37 | 44.14594 | 0.70632 | 38205 ft | 366 kts | 338° |
| 2026-04-14 12:37 | 44.19206 | 0.67638 | 38218 ft | 365 kts | 338° |
| 2026-04-14 12:38 | 44.26122 | 0.63135 | 38217 ft | 366 kts | 338° |
| 2026-04-14 12:39 | 44.30745 | 0.60118 | 38212 ft | 367 kts | 338° |
| 2026-04-14 12:39 | 44.35387 | 0.57082 | 38209 ft | 369 kts | 338° |
| 2026-04-14 12:40 | 44.40042 | 0.54033 | 38213 ft | 370 kts | 338° |
| 2026-04-14 12:40 | 44.44715 | 0.50966 | 38216 ft | 371 kts | 337° |
| 2026-04-14 12:41 | 44.49394 | 0.47870 | 38207 ft | 372 kts | 337° |
| 2026-04-14 12:41 | 44.54074 | 0.44761 | 38212 ft | 373 kts | 337° |
| 2026-04-14 12:42 | 44.58731 | 0.41663 | 38211 ft | 373 kts | 337° |
| 2026-04-14 12:42 | 44.63416 | 0.38541 | 38217 ft | 373 kts | 337° |
| 2026-04-14 12:43 | 44.68093 | 0.35420 | 38196 ft | 371 kts | 337° |
| 2026-04-14 12:43 | 44.72752 | 0.32305 | 38206 ft | 371 kts | 337° |
| 2026-04-14 12:44 | 44.77408 | 0.29187 | 38213 ft | 370 kts | 337° |
| 2026-04-14 12:44 | 44.82055 | 0.26069 | 38211 ft | 370 kts | 337° |
| 2026-04-14 12:45 | 44.89014 | 0.21390 | 38205 ft | 369 kts | 337° |
| 2026-04-14 12:45 | 44.93640 | 0.18272 | 38205 ft | 368 kts | 337° |
| 2026-04-14 12:46 | 44.98265 | 0.15149 | 38205 ft | 368 kts | 337° |
| 2026-04-14 12:46 | 45.02884 | 0.12026 | 38194 ft | 368 kts | 337° |
| 2026-04-14 12:47 | 45.07504 | 0.08897 | 38200 ft | 368 kts | 337° |
| 2026-04-14 12:47 | 45.12129 | 0.05762 | 38201 ft | 369 kts | 337° |
| 2026-04-14 12:48 | 45.16754 | 0.02620 | 38202 ft | 369 kts | 337° |
| 2026-04-14 12:48 | 45.21384 | -0.00532 | 38189 ft | 369 kts | 337° |
| 2026-04-14 12:49 | 45.26018 | -0.03691 | 38191 ft | 370 kts | 336° |
| 2026-04-14 12:49 | 45.30652 | -0.06857 | 38199 ft | 370 kts | 336° |
| 2026-04-14 12:50 | 45.37622 | -0.11629 | 38202 ft | 371 kts | 336° |
| 2026-04-14 12:51 | 45.42279 | -0.14825 | 38203 ft | 372 kts | 336° |
| 2026-04-14 12:51 | 45.46915 | -0.18013 | 38207 ft | 373 kts | 336° |
| 2026-04-14 12:52 | 45.51586 | -0.21231 | 38207 ft | 373 kts | 336° |
| 2026-04-14 12:52 | 45.56267 | -0.24462 | 38216 ft | 374 kts | 336° |
| 2026-04-14 12:53 | 45.60944 | -0.27695 | 38211 ft | 374 kts | 336° |
| 2026-04-14 12:53 | 45.65605 | -0.31003 | 38211 ft | 375 kts | 332° |
| 2026-04-14 12:54 | 45.69830 | -0.35432 | 38205 ft | 378 kts | 325° |
| 2026-04-14 12:54 | 45.73947 | -0.40120 | 38194 ft | 378 kts | 326° |
| 2026-04-14 12:55 | 45.78060 | -0.44788 | 38203 ft | 377 kts | 326° |
| 2026-04-14 12:55 | 45.82179 | -0.49456 | 38204 ft | 377 kts | 326° |
| 2026-04-14 12:56 | 45.86297 | -0.54127 | 38187 ft | 377 kts | 325° |
| 2026-04-14 12:56 | 45.90404 | -0.58795 | 38203 ft | 376 kts | 325° |
| 2026-04-14 12:57 | 45.94503 | -0.63462 | 38205 ft | 376 kts | 325° |
| 2026-04-14 12:57 | 45.98594 | -0.68128 | 38208 ft | 376 kts | 325° |
| 2026-04-14 12:58 | 46.02683 | -0.72802 | 38198 ft | 375 kts | 325° |
| 2026-04-14 12:58 | 46.06764 | -0.77475 | 38200 ft | 374 kts | 325° |
| 2026-04-14 12:59 | 46.10831 | -0.82142 | 38198 ft | 373 kts | 325° |
| 2026-04-14 12:59 | 46.14893 | -0.86813 | 38200 ft | 373 kts | 324° |
| 2026-04-14 13:00 | 46.18957 | -0.91493 | 38202 ft | 374 kts | 324° |
| 2026-04-14 13:00 | 46.22994 | -0.96150 | 38210 ft | 374 kts | 324° |
| 2026-04-14 13:01 | 46.27066 | -1.00850 | 38213 ft | 375 kts | 324° |
| 2026-04-14 13:01 | 46.31140 | -1.05561 | 38209 ft | 375 kts | 324° |
| 2026-04-14 13:02 | 46.35220 | -1.10289 | 38203 ft | 376 kts | 324° |
| 2026-04-14 13:02 | 46.39300 | -1.15027 | 38204 ft | 376 kts | 324° |
| 2026-04-14 13:03 | 46.43385 | -1.19782 | 38195 ft | 377 kts | 324° |
| 2026-04-14 13:03 | 46.47469 | -1.24544 | 38189 ft | 376 kts | 323° |
| 2026-04-14 13:04 | 46.51547 | -1.29309 | 38204 ft | 376 kts | 323° |
| 2026-04-14 13:04 | 46.55626 | -1.34083 | 38205 ft | 376 kts | 323° |
| 2026-04-14 13:05 | 46.59743 | -1.38776 | 38208 ft | 375 kts | 328° |
| 2026-04-14 13:05 | 46.64347 | -1.42294 | 38216 ft | 374 kts | 334° |
| 2026-04-14 13:06 | 46.69043 | -1.45566 | 38213 ft | 374 kts | 334° |
| 2026-04-14 13:06 | 46.73728 | -1.48868 | 38211 ft | 374 kts | 334° |
| 2026-04-14 13:07 | 46.78400 | -1.52182 | 38179 ft | 373 kts | 334° |
| 2026-04-14 13:07 | 46.83070 | -1.55500 | 38180 ft | 373 kts | 334° |